sensor_id;sensor_type;location;lat;lon;timestamp;temperature;humidity
5578;DHT22;2811;51.900;10.734;2023-07-08T00:02:08;17.10;99.90
5578;DHT22;2811;51.900;10.734;2023-07-08T00:04:35;16.90;99.90
5578;DHT22;2811;51.900;10.734;2023-07-08T00:07:02;16.80;99.90
5578;DHT22;2811;51.900;10.734;2023-07-08T00:09:29;16.90;99.90
5578;DHT22;2811;51.900;10.734;2023-07-08T00:11:57;17.20;99.90
5578;DHT22;2811;51.900;10.734;2023-07-08T00:14:24;17.10;99.90
5578;DHT22;2811;51.900;10.734;2023-07-08T00:16:51;17.10;99.90
5578;DHT22;2811;51.900;10.734;2023-07-08T00:19:17;17.10;99.90
5578;DHT22;2811;51.900;10.734;2023-07-08T00:21:44;16.80;99.90
5578;DHT22;2811;51.900;10.734;2023-07-08T00:24:11;16.90;99.90
5578;DHT22;2811;51.900;10.734;2023-07-08T00:26:38;16.80;99.90
5578;DHT22;2811;51.900;10.734;2023-07-08T00:29:08;17.00;99.90
5578;DHT22;2811;51.900;10.734;2023-07-08T00:31:35;17.10;99.90
5578;DHT22;2811;51.900;10.734;2023-07-08T00:34:02;17.20;99.90
5578;DHT22;2811;51.900;10.734;2023-07-08T00:36:30;17.20;99.90
5578;DHT22;2811;51.900;10.734;2023-07-08T00:38:57;17.30;99.90
5578;DHT22;2811;51.900;10.734;2023-07-08T00:41:27;17.00;99.90
5578;DHT22;2811;51.900;10.734;2023-07-08T00:43:56;16.90;99.90
5578;DHT22;2811;51.900;10.734;2023-07-08T00:46:38;16.60;99.90
5578;DHT22;2811;51.900;10.734;2023-07-08T00:49:25;16.50;99.90
5578;DHT22;2811;51.900;10.734;2023-07-08T00:51:52;16.40;99.90
5578;DHT22;2811;51.900;10.734;2023-07-08T00:54:20;16.30;99.90
5578;DHT22;2811;51.900;10.734;2023-07-08T00:56:49;16.30;99.90
5578;DHT22;2811;51.900;10.734;2023-07-08T00:59:21;16.30;99.90
5578;DHT22;2811;51.900;10.734;2023-07-08T01:01:51;16.30;99.90
5578;DHT22;2811;51.900;10.734;2023-07-08T01:04:22;16.30;99.90
5578;DHT22;2811;51.900;10.734;2023-07-08T01:06:52;16.30;99.90
5578;DHT22;2811;51.900;10.734;2023-07-08T01:09:25;16.30;99.90
5578;DHT22;2811;51.900;10.734;2023-07-08T01:11:52;16.40;99.90
5578;DHT22;2811;51.900;10.734;2023-07-08T01:14:21;16.60;99.90
5578;DHT22;2811;51.900;10.734;2023-07-08T01:16:51;16.60;99.90
5578;DHT22;2811;51.900;10.734;2023-07-08T01:19:21;16.60;99.90
5578;DHT22;2811;51.900;10.734;2023-07-08T01:21:59;16.70;99.90
5578;DHT22;2811;51.900;10.734;2023-07-08T01:24:27;16.70;99.90
5578;DHT22;2811;51.900;10.734;2023-07-08T01:26:57;16.70;99.90
5578;DHT22;2811;51.900;10.734;2023-07-08T01:29:24;16.70;99.90
5578;DHT22;2811;51.900;10.734;2023-07-08T01:31:51;16.60;99.90
5578;DHT22;2811;51.900;10.734;2023-07-08T01:34:18;16.70;99.90
5578;DHT22;2811;51.900;10.734;2023-07-08T01:36:54;16.60;99.90
5578;DHT22;2811;51.900;10.734;2023-07-08T01:39:25;16.60;99.90
5578;DHT22;2811;51.900;10.734;2023-07-08T01:41:52;16.60;99.90
5578;DHT22;2811;51.900;10.734;2023-07-08T01:44:27;16.60;99.90
5578;DHT22;2811;51.900;10.734;2023-07-08T01:46:56;16.60;99.90
5578;DHT22;2811;51.900;10.734;2023-07-08T01:49:24;16.50;99.90
5578;DHT22;2811;51.900;10.734;2023-07-08T01:51:51;16.50;99.90
5578;DHT22;2811;51.900;10.734;2023-07-08T01:54:18;16.50;99.90
5578;DHT22;2811;51.900;10.734;2023-07-08T01:56:46;16.40;99.90
5578;DHT22;2811;51.900;10.734;2023-07-08T01:59:17;16.40;99.90
5578;DHT22;2811;51.900;10.734;2023-07-08T02:01:43;16.40;99.90
5578;DHT22;2811;51.900;10.734;2023-07-08T02:04:10;16.20;99.90
5578;DHT22;2811;51.900;10.734;2023-07-08T02:06:37;16.20;99.90
5578;DHT22;2811;51.900;10.734;2023-07-08T02:09:03;16.10;99.90
5578;DHT22;2811;51.900;10.734;2023-07-08T02:11:31;15.80;99.90
5578;DHT22;2811;51.900;10.734;2023-07-08T02:13:59;15.70;99.90
5578;DHT22;2811;51.900;10.734;2023-07-08T02:16:26;15.70;99.90
5578;DHT22;2811;51.900;10.734;2023-07-08T02:18:52;15.70;99.90
5578;DHT22;2811;51.900;10.734;2023-07-08T02:21:19;15.90;99.90
5578;DHT22;2811;51.900;10.734;2023-07-08T02:23:49;16.00;99.90
5578;DHT22;2811;51.900;10.734;2023-07-08T02:26:18;16.10;99.90
5578;DHT22;2811;51.900;10.734;2023-07-08T02:28:45;15.90;99.90
5578;DHT22;2811;51.900;10.734;2023-07-08T02:31:13;16.00;99.90
5578;DHT22;2811;51.900;10.734;2023-07-08T02:33:39;15.90;99.90
5578;DHT22;2811;51.900;10.734;2023-07-08T02:36:06;16.10;99.90
5578;DHT22;2811;51.900;10.734;2023-07-08T02:38:33;16.10;99.90
5578;DHT22;2811;51.900;10.734;2023-07-08T02:41:00;15.90;99.90
5578;DHT22;2811;51.900;10.734;2023-07-08T02:43:27;15.90;99.90
5578;DHT22;2811;51.900;10.734;2023-07-08T02:45:53;16.10;99.90
5578;DHT22;2811;51.900;10.734;2023-07-08T02:48:21;16.00;99.90
5578;DHT22;2811;51.900;10.734;2023-07-08T02:50:48;15.80;99.90
5578;DHT22;2811;51.900;10.734;2023-07-08T02:53:14;15.60;99.90
5578;DHT22;2811;51.900;10.734;2023-07-08T02:55:41;15.60;99.90
5578;DHT22;2811;51.900;10.734;2023-07-08T02:58:08;15.80;99.90
5578;DHT22;2811;51.900;10.734;2023-07-08T03:00:35;16.00;99.90
5578;DHT22;2811;51.900;10.734;2023-07-08T03:03:03;16.00;99.90
5578;DHT22;2811;51.900;10.734;2023-07-08T03:05:31;16.00;99.90
5578;DHT22;2811;51.900;10.734;2023-07-08T03:07:58;16.20;99.90
5578;DHT22;2811;51.900;10.734;2023-07-08T03:10:25;16.10;99.90
5578;DHT22;2811;51.900;10.734;2023-07-08T03:12:52;15.90;99.90
5578;DHT22;2811;51.900;10.734;2023-07-08T03:15:19;16.20;99.90
5578;DHT22;2811;51.900;10.734;2023-07-08T03:17:45;15.60;99.90
5578;DHT22;2811;51.900;10.734;2023-07-08T03:20:12;15.50;99.90
5578;DHT22;2811;51.900;10.734;2023-07-08T03:22:40;15.60;99.90
5578;DHT22;2811;51.900;10.734;2023-07-08T03:25:07;15.70;99.90
5578;DHT22;2811;51.900;10.734;2023-07-08T03:27:34;15.80;99.90
5578;DHT22;2811;51.900;10.734;2023-07-08T03:30:01;15.80;99.90
5578;DHT22;2811;51.900;10.734;2023-07-08T03:32:29;15.80;99.90
5578;DHT22;2811;51.900;10.734;2023-07-08T03:34:56;15.80;99.90
5578;DHT22;2811;51.900;10.734;2023-07-08T03:37:23;16.10;99.90
5578;DHT22;2811;51.900;10.734;2023-07-08T03:39:51;15.70;99.90
5578;DHT22;2811;51.900;10.734;2023-07-08T03:42:18;15.70;99.90
5578;DHT22;2811;51.900;10.734;2023-07-08T03:44:44;15.80;99.90
5578;DHT22;2811;51.900;10.734;2023-07-08T03:47:11;15.80;99.90
5578;DHT22;2811;51.900;10.734;2023-07-08T03:49:37;15.80;99.90
5578;DHT22;2811;51.900;10.734;2023-07-08T03:52:07;15.60;99.90
5578;DHT22;2811;51.900;10.734;2023-07-08T03:54:35;15.60;99.90
5578;DHT22;2811;51.900;10.734;2023-07-08T03:57:04;15.60;99.90
5578;DHT22;2811;51.900;10.734;2023-07-08T03:59:31;15.70;99.90
5578;DHT22;2811;51.900;10.734;2023-07-08T04:01:57;15.70;99.90
5578;DHT22;2811;51.900;10.734;2023-07-08T04:04:24;15.90;99.90
5578;DHT22;2811;51.900;10.734;2023-07-08T04:06:50;16.00;99.90
5578;DHT22;2811;51.900;10.734;2023-07-08T04:09:17;16.10;99.90
5578;DHT22;2811;51.900;10.734;2023-07-08T04:11:44;16.00;99.90
5578;DHT22;2811;51.900;10.734;2023-07-08T04:14:12;16.10;99.90
5578;DHT22;2811;51.900;10.734;2023-07-08T04:16:46;16.20;99.90
5578;DHT22;2811;51.900;10.734;2023-07-08T04:19:14;16.30;99.90
5578;DHT22;2811;51.900;10.734;2023-07-08T04:21:41;16.40;99.90
5578;DHT22;2811;51.900;10.734;2023-07-08T04:24:09;16.50;99.90
5578;DHT22;2811;51.900;10.734;2023-07-08T04:26:37;16.60;99.90
5578;DHT22;2811;51.900;10.734;2023-07-08T04:29:05;16.70;99.90
5578;DHT22;2811;51.900;10.734;2023-07-08T04:31:33;16.80;99.90
5578;DHT22;2811;51.900;10.734;2023-07-08T04:34:00;16.90;99.90
5578;DHT22;2811;51.900;10.734;2023-07-08T04:36:27;17.20;99.90
5578;DHT22;2811;51.900;10.734;2023-07-08T04:38:53;18.10;99.90
5578;DHT22;2811;51.900;10.734;2023-07-08T04:41:23;19.00;99.90
5578;DHT22;2811;51.900;10.734;2023-07-08T04:43:51;19.50;99.90
5578;DHT22;2811;51.900;10.734;2023-07-08T04:46:19;19.60;99.90
5578;DHT22;2811;51.900;10.734;2023-07-08T04:48:51;20.10;99.90
5578;DHT22;2811;51.900;10.734;2023-07-08T04:51:18;20.50;99.90
5578;DHT22;2811;51.900;10.734;2023-07-08T04:53:45;21.10;99.90
5578;DHT22;2811;51.900;10.734;2023-07-08T04:56:12;21.10;99.90
5578;DHT22;2811;51.900;10.734;2023-07-08T04:58:38;21.20;99.90
5578;DHT22;2811;51.900;10.734;2023-07-08T05:01:05;21.40;99.90
5578;DHT22;2811;51.900;10.734;2023-07-08T05:03:32;21.60;99.90
5578;DHT22;2811;51.900;10.734;2023-07-08T05:06:00;21.50;99.90
5578;DHT22;2811;51.900;10.734;2023-07-08T05:08:26;21.50;99.90
5578;DHT22;2811;51.900;10.734;2023-07-08T05:10:53;21.60;99.90
5578;DHT22;2811;51.900;10.734;2023-07-08T05:13:20;22.00;99.90
5578;DHT22;2811;51.900;10.734;2023-07-08T05:15:48;21.90;99.90
5578;DHT22;2811;51.900;10.734;2023-07-08T05:18:14;22.10;99.90
5578;DHT22;2811;51.900;10.734;2023-07-08T05:20:41;21.90;99.90
5578;DHT22;2811;51.900;10.734;2023-07-08T05:23:10;21.70;99.90
5578;DHT22;2811;51.900;10.734;2023-07-08T05:25:36;21.70;99.90
5578;DHT22;2811;51.900;10.734;2023-07-08T05:28:04;21.70;99.90
5578;DHT22;2811;51.900;10.734;2023-07-08T05:30:30;21.60;99.90
5578;DHT22;2811;51.900;10.734;2023-07-08T05:32:57;21.80;99.90
5578;DHT22;2811;51.900;10.734;2023-07-08T05:35:23;21.60;99.90
5578;DHT22;2811;51.900;10.734;2023-07-08T05:37:50;22.20;99.90
5578;DHT22;2811;51.900;10.734;2023-07-08T05:40:18;22.50;99.90
5578;DHT22;2811;51.900;10.734;2023-07-08T05:42:45;22.90;99.90
5578;DHT22;2811;51.900;10.734;2023-07-08T05:45:12;23.40;99.90
5578;DHT22;2811;51.900;10.734;2023-07-08T05:47:38;23.70;99.90
5578;DHT22;2811;51.900;10.734;2023-07-08T05:50:06;23.60;99.60
5578;DHT22;2811;51.900;10.734;2023-07-08T05:52:33;23.90;99.90
5578;DHT22;2811;51.900;10.734;2023-07-08T05:54:59;23.80;99.40
5578;DHT22;2811;51.900;10.734;2023-07-08T05:57:27;23.80;99.70
5578;DHT22;2811;51.900;10.734;2023-07-08T05:59:54;23.70;99.60
5578;DHT22;2811;51.900;10.734;2023-07-08T06:02:21;23.60;99.60
5578;DHT22;2811;51.900;10.734;2023-07-08T06:04:51;23.70;99.80
5578;DHT22;2811;51.900;10.734;2023-07-08T06:07:18;23.60;99.50
5578;DHT22;2811;51.900;10.734;2023-07-08T06:09:44;23.60;98.70
5578;DHT22;2811;51.900;10.734;2023-07-08T06:12:11;23.90;99.10
5578;DHT22;2811;51.900;10.734;2023-07-08T06:14:39;24.10;98.60
5578;DHT22;2811;51.900;10.734;2023-07-08T06:17:06;23.90;99.30
5578;DHT22;2811;51.900;10.734;2023-07-08T06:19:33;23.80;99.90
5578;DHT22;2811;51.900;10.734;2023-07-08T06:22:00;23.80;99.90
5578;DHT22;2811;51.900;10.734;2023-07-08T06:24:26;23.70;99.90
5578;DHT22;2811;51.900;10.734;2023-07-08T06:26:53;24.00;99.90
5578;DHT22;2811;51.900;10.734;2023-07-08T06:29:20;24.30;99.90
5578;DHT22;2811;51.900;10.734;2023-07-08T06:31:47;24.40;99.80
5578;DHT22;2811;51.900;10.734;2023-07-08T06:34:14;24.40;99.90
5578;DHT22;2811;51.900;10.734;2023-07-08T06:36:41;24.70;99.60
5578;DHT22;2811;51.900;10.734;2023-07-08T06:39:07;24.70;99.50
5578;DHT22;2811;51.900;10.734;2023-07-08T06:41:36;24.90;99.60
5578;DHT22;2811;51.900;10.734;2023-07-08T06:44:03;25.00;98.90
5578;DHT22;2811;51.900;10.734;2023-07-08T06:46:30;24.90;99.30
5578;DHT22;2811;51.900;10.734;2023-07-08T06:48:58;25.10;99.20
5578;DHT22;2811;51.900;10.734;2023-07-08T06:51:25;25.20;99.30
5578;DHT22;2811;51.900;10.734;2023-07-08T06:53:52;25.10;99.10
5578;DHT22;2811;51.900;10.734;2023-07-08T06:56:19;25.10;99.70
5578;DHT22;2811;51.900;10.734;2023-07-08T06:58:46;25.30;99.50
5578;DHT22;2811;51.900;10.734;2023-07-08T07:01:13;25.60;99.30
5578;DHT22;2811;51.900;10.734;2023-07-08T07:03:42;25.50;99.10
5578;DHT22;2811;51.900;10.734;2023-07-08T07:06:10;25.40;99.20
5578;DHT22;2811;51.900;10.734;2023-07-08T07:08:37;25.50;99.50
5578;DHT22;2811;51.900;10.734;2023-07-08T07:11:04;25.70;99.50
5578;DHT22;2811;51.900;10.734;2023-07-08T07:13:30;25.70;99.60
5578;DHT22;2811;51.900;10.734;2023-07-08T07:15:58;25.80;99.60
5578;DHT22;2811;51.900;10.734;2023-07-08T07:18:24;25.90;99.30
5578;DHT22;2811;51.900;10.734;2023-07-08T07:20:54;25.80;99.30
5578;DHT22;2811;51.900;10.734;2023-07-08T07:23:22;25.90;99.90
5578;DHT22;2811;51.900;10.734;2023-07-08T07:25:48;26.00;99.70
5578;DHT22;2811;51.900;10.734;2023-07-08T07:28:16;26.30;99.30
5578;DHT22;2811;51.900;10.734;2023-07-08T07:30:43;26.10;99.30
5578;DHT22;2811;51.900;10.734;2023-07-08T07:33:09;26.20;99.50
5578;DHT22;2811;51.900;10.734;2023-07-08T07:35:41;26.00;99.50
5578;DHT22;2811;51.900;10.734;2023-07-08T07:38:07;26.10;99.60
5578;DHT22;2811;51.900;10.734;2023-07-08T07:40:35;26.40;99.30
5578;DHT22;2811;51.900;10.734;2023-07-08T07:43:02;26.20;99.50
5578;DHT22;2811;51.900;10.734;2023-07-08T07:45:29;26.50;99.40
5578;DHT22;2811;51.900;10.734;2023-07-08T07:47:55;26.70;99.10
5578;DHT22;2811;51.900;10.734;2023-07-08T07:50:22;26.80;98.80
5578;DHT22;2811;51.900;10.734;2023-07-08T07:52:48;27.10;98.60
5578;DHT22;2811;51.900;10.734;2023-07-08T07:55:15;27.30;98.60
5578;DHT22;2811;51.900;10.734;2023-07-08T07:57:43;27.60;97.70
5578;DHT22;2811;51.900;10.734;2023-07-08T08:00:12;27.30;97.80
5578;DHT22;2811;51.900;10.734;2023-07-08T08:02:39;27.60;97.50
5578;DHT22;2811;51.900;10.734;2023-07-08T08:05:06;28.00;97.20
5578;DHT22;2811;51.900;10.734;2023-07-08T08:07:34;27.90;97.00
5578;DHT22;2811;51.900;10.734;2023-07-08T08:10:01;27.70;97.80
5578;DHT22;2811;51.900;10.734;2023-07-08T08:12:28;27.70;95.50
5578;DHT22;2811;51.900;10.734;2023-07-08T08:14:56;27.90;95.30
5578;DHT22;2811;51.900;10.734;2023-07-08T08:17:23;27.80;95.80
5578;DHT22;2811;51.900;10.734;2023-07-08T08:19:49;28.00;96.10
5578;DHT22;2811;51.900;10.734;2023-07-08T08:22:16;28.10;95.60
5578;DHT22;2811;51.900;10.734;2023-07-08T08:24:42;28.10;95.60
5578;DHT22;2811;51.900;10.734;2023-07-08T08:27:09;28.10;95.40
5578;DHT22;2811;51.900;10.734;2023-07-08T08:29:36;28.00;95.70
5578;DHT22;2811;51.900;10.734;2023-07-08T08:32:04;28.20;95.20
5578;DHT22;2811;51.900;10.734;2023-07-08T08:34:31;28.40;95.00
5578;DHT22;2811;51.900;10.734;2023-07-08T08:36:57;28.40;94.00
5578;DHT22;2811;51.900;10.734;2023-07-08T08:39:24;28.50;93.30
5578;DHT22;2811;51.900;10.734;2023-07-08T08:41:52;28.70;93.90
5578;DHT22;2811;51.900;10.734;2023-07-08T08:44:25;28.80;93.70
5578;DHT22;2811;51.900;10.734;2023-07-08T08:46:59;28.80;94.40
5578;DHT22;2811;51.900;10.734;2023-07-08T08:49:34;28.80;94.70
5578;DHT22;2811;51.900;10.734;2023-07-08T08:52:01;28.90;92.80
5578;DHT22;2811;51.900;10.734;2023-07-08T08:54:29;29.20;92.70
5578;DHT22;2811;51.900;10.734;2023-07-08T08:57:00;29.10;87.30
5578;DHT22;2811;51.900;10.734;2023-07-08T08:59:37;29.00;86.90
5578;DHT22;2811;51.900;10.734;2023-07-08T09:02:23;28.90;89.60
5578;DHT22;2811;51.900;10.734;2023-07-08T09:05:01;28.80;89.80
5578;DHT22;2811;51.900;10.734;2023-07-08T09:07:28;28.90;90.40
5578;DHT22;2811;51.900;10.734;2023-07-08T09:10:01;28.80;91.20
5578;DHT22;2811;51.900;10.734;2023-07-08T09:12:29;28.70;90.50
5578;DHT22;2811;51.900;10.734;2023-07-08T09:14:57;28.90;89.60
5578;DHT22;2811;51.900;10.734;2023-07-08T09:17:27;28.50;88.80
5578;DHT22;2811;51.900;10.734;2023-07-08T09:20:06;28.60;90.50
5578;DHT22;2811;51.900;10.734;2023-07-08T09:22:42;28.80;90.40
5578;DHT22;2811;51.900;10.734;2023-07-08T09:25:22;28.90;91.00
5578;DHT22;2811;51.900;10.734;2023-07-08T09:27:50;29.00;87.70
5578;DHT22;2811;51.900;10.734;2023-07-08T09:30:20;29.00;90.00
5578;DHT22;2811;51.900;10.734;2023-07-08T09:32:47;29.20;87.90
5578;DHT22;2811;51.900;10.734;2023-07-08T09:35:20;29.10;86.90
5578;DHT22;2811;51.900;10.734;2023-07-08T09:37:48;29.10;85.70
5578;DHT22;2811;51.900;10.734;2023-07-08T09:40:17;29.20;86.20
5578;DHT22;2811;51.900;10.734;2023-07-08T09:42:46;29.10;87.00
5578;DHT22;2811;51.900;10.734;2023-07-08T09:45:19;29.60;88.20
5578;DHT22;2811;51.900;10.734;2023-07-08T09:47:46;29.80;84.30
5578;DHT22;2811;51.900;10.734;2023-07-08T09:50:20;30.00;83.70
5578;DHT22;2811;51.900;10.734;2023-07-08T09:52:47;30.00;82.00
5578;DHT22;2811;51.900;10.734;2023-07-08T09:55:14;30.00;81.40
5578;DHT22;2811;51.900;10.734;2023-07-08T09:57:43;29.70;80.50
5578;DHT22;2811;51.900;10.734;2023-07-08T10:00:15;29.70;82.00
5578;DHT22;2811;51.900;10.734;2023-07-08T10:02:45;29.90;80.70
5578;DHT22;2811;51.900;10.734;2023-07-08T10:05:16;30.10;78.80
5578;DHT22;2811;51.900;10.734;2023-07-08T10:07:46;30.20;77.70
5578;DHT22;2811;51.900;10.734;2023-07-08T10:10:16;30.00;78.80
5578;DHT22;2811;51.900;10.734;2023-07-08T10:12:53;30.10;78.10
5578;DHT22;2811;51.900;10.734;2023-07-08T10:15:27;30.10;79.00
5578;DHT22;2811;51.900;10.734;2023-07-08T10:17:55;30.10;78.40
5578;DHT22;2811;51.900;10.734;2023-07-08T10:20:22;30.00;79.70
5578;DHT22;2811;51.900;10.734;2023-07-08T10:23:02;29.90;79.10
5578;DHT22;2811;51.900;10.734;2023-07-08T10:25:39;30.10;79.40
5578;DHT22;2811;51.900;10.734;2023-07-08T10:28:26;30.10;76.30
5578;DHT22;2811;51.900;10.734;2023-07-08T10:31:06;30.30;76.50
5578;DHT22;2811;51.900;10.734;2023-07-08T10:33:46;30.50;78.50
5578;DHT22;2811;51.900;10.734;2023-07-08T10:36:23;30.70;75.40
5578;DHT22;2811;51.900;10.734;2023-07-08T10:39:05;30.90;77.10
5578;DHT22;2811;51.900;10.734;2023-07-08T10:41:43;30.90;75.40
5578;DHT22;2811;51.900;10.734;2023-07-08T10:44:19;30.90;73.80
5578;DHT22;2811;51.900;10.734;2023-07-08T10:46:56;30.70;73.30
5578;DHT22;2811;51.900;10.734;2023-07-08T10:52:31;30.70;72.70
5578;DHT22;2811;51.900;10.734;2023-07-08T10:55:14;30.50;71.90
5578;DHT22;2811;51.900;10.734;2023-07-08T10:58:08;30.70;71.10
5578;DHT22;2811;51.900;10.734;2023-07-08T11:00:43;30.90;72.10
5578;DHT22;2811;51.900;10.734;2023-07-08T11:03:40;30.90;71.00
5578;DHT22;2811;51.900;10.734;2023-07-08T11:06:12;30.70;67.50
5578;DHT22;2811;51.900;10.734;2023-07-08T11:08:43;30.50;69.10
5578;DHT22;2811;51.900;10.734;2023-07-08T11:11:24;30.80;71.00
5578;DHT22;2811;51.900;10.734;2023-07-08T11:14:00;30.90;68.50
5578;DHT22;2811;51.900;10.734;2023-07-08T11:16:32;30.90;67.60
5578;DHT22;2811;51.900;10.734;2023-07-08T11:19:04;30.90;69.40
5578;DHT22;2811;51.900;10.734;2023-07-08T11:21:35;31.10;69.70
5578;DHT22;2811;51.900;10.734;2023-07-08T11:24:08;31.10;70.00
5578;DHT22;2811;51.900;10.734;2023-07-08T11:26:43;31.20;69.50
5578;DHT22;2811;51.900;10.734;2023-07-08T11:29:15;31.40;67.00
5578;DHT22;2811;51.900;10.734;2023-07-08T11:31:44;31.30;65.20
5578;DHT22;2811;51.900;10.734;2023-07-08T11:34:13;31.10;67.30
5578;DHT22;2811;51.900;10.734;2023-07-08T11:36:42;31.10;66.20
5578;DHT22;2811;51.900;10.734;2023-07-08T11:39:27;31.30;67.10
5578;DHT22;2811;51.900;10.734;2023-07-08T11:42:09;31.20;68.10
5578;DHT22;2811;51.900;10.734;2023-07-08T11:44:42;31.20;69.70
5578;DHT22;2811;51.900;10.734;2023-07-08T11:47:15;31.40;67.90
5578;DHT22;2811;51.900;10.734;2023-07-08T11:49:43;31.40;66.90
5578;DHT22;2811;51.900;10.734;2023-07-08T11:52:14;31.40;67.30
5578;DHT22;2811;51.900;10.734;2023-07-08T11:54:45;31.50;66.90
5578;DHT22;2811;51.900;10.734;2023-07-08T11:57:19;31.70;67.40
5578;DHT22;2811;51.900;10.734;2023-07-08T12:00:12;31.60;65.10
5578;DHT22;2811;51.900;10.734;2023-07-08T12:02:53;31.90;65.30
5578;DHT22;2811;51.900;10.734;2023-07-08T12:05:33;31.90;65.00
5578;DHT22;2811;51.900;10.734;2023-07-08T12:08:01;31.80;64.60
5578;DHT22;2811;51.900;10.734;2023-07-08T12:10:32;32.00;65.40
5578;DHT22;2811;51.900;10.734;2023-07-08T12:13:01;32.00;65.70
5578;DHT22;2811;51.900;10.734;2023-07-08T12:15:29;31.90;64.80
5578;DHT22;2811;51.900;10.734;2023-07-08T12:17:59;31.90;64.80
5578;DHT22;2811;51.900;10.734;2023-07-08T12:20:29;32.00;63.10
5578;DHT22;2811;51.900;10.734;2023-07-08T12:22:56;31.80;63.10
5578;DHT22;2811;51.900;10.734;2023-07-08T12:25:29;31.90;63.80
5578;DHT22;2811;51.900;10.734;2023-07-08T12:27:57;32.00;63.30
5578;DHT22;2811;51.900;10.734;2023-07-08T12:30:28;32.00;62.30
5578;DHT22;2811;51.900;10.734;2023-07-08T12:32:55;32.10;62.20
5578;DHT22;2811;51.900;10.734;2023-07-08T12:35:28;32.20;64.30
5578;DHT22;2811;51.900;10.734;2023-07-08T12:37:57;32.40;63.80
5578;DHT22;2811;51.900;10.734;2023-07-08T12:40:26;32.50;62.00
5578;DHT22;2811;51.900;10.734;2023-07-08T12:42:52;32.30;61.00
5578;DHT22;2811;51.900;10.734;2023-07-08T12:45:21;32.30;62.40
5578;DHT22;2811;51.900;10.734;2023-07-08T12:47:50;32.40;61.90
5578;DHT22;2811;51.900;10.734;2023-07-08T12:50:16;32.30;61.40
5578;DHT22;2811;51.900;10.734;2023-07-08T12:52:44;32.30;62.80
5578;DHT22;2811;51.900;10.734;2023-07-08T12:55:11;32.40;61.70
5578;DHT22;2811;51.900;10.734;2023-07-08T12:57:40;32.50;62.30
5578;DHT22;2811;51.900;10.734;2023-07-08T13:00:13;32.80;61.70
5578;DHT22;2811;51.900;10.734;2023-07-08T13:02:43;32.60;59.80
5578;DHT22;2811;51.900;10.734;2023-07-08T13:05:12;32.50;59.50
5578;DHT22;2811;51.900;10.734;2023-07-08T13:07:41;32.40;59.30
5578;DHT22;2811;51.900;10.734;2023-07-08T13:10:17;32.70;59.50
5578;DHT22;2811;51.900;10.734;2023-07-08T13:12:45;32.50;58.90
5578;DHT22;2811;51.900;10.734;2023-07-08T13:15:19;32.80;57.30
5578;DHT22;2811;51.900;10.734;2023-07-08T13:17:47;32.90;56.50
5578;DHT22;2811;51.900;10.734;2023-07-08T13:20:16;33.00;56.30
5578;DHT22;2811;51.900;10.734;2023-07-08T13:22:51;32.90;55.90
5578;DHT22;2811;51.900;10.734;2023-07-08T13:25:19;33.00;55.30
5578;DHT22;2811;51.900;10.734;2023-07-08T13:27:58;32.70;57.20
5578;DHT22;2811;51.900;10.734;2023-07-08T13:30:27;32.40;57.80
5578;DHT22;2811;51.900;10.734;2023-07-08T13:32:55;32.20;57.90
5578;DHT22;2811;51.900;10.734;2023-07-08T13:35:28;32.10;57.20
5578;DHT22;2811;51.900;10.734;2023-07-08T13:38:01;32.00;57.10
5578;DHT22;2811;51.900;10.734;2023-07-08T13:40:28;32.40;57.90
5578;DHT22;2811;51.900;10.734;2023-07-08T13:42:55;32.70;56.50
5578;DHT22;2811;51.900;10.734;2023-07-08T13:45:25;32.50;55.50
5578;DHT22;2811;51.900;10.734;2023-07-08T13:48:00;32.50;54.80
5578;DHT22;2811;51.900;10.734;2023-07-08T13:50:33;32.50;55.70
5578;DHT22;2811;51.900;10.734;2023-07-08T13:53:02;32.70;57.00
5578;DHT22;2811;51.900;10.734;2023-07-08T13:55:29;32.70;56.30
5578;DHT22;2811;51.900;10.734;2023-07-08T13:57:58;32.60;55.30
5578;DHT22;2811;51.900;10.734;2023-07-08T14:00:28;32.50;54.10
5578;DHT22;2811;51.900;10.734;2023-07-08T14:02:55;32.50;55.30
5578;DHT22;2811;51.900;10.734;2023-07-08T14:05:21;32.50;52.20
5578;DHT22;2811;51.900;10.734;2023-07-08T14:07:49;32.50;53.20
5578;DHT22;2811;51.900;10.734;2023-07-08T14:10:16;32.60;53.00
5578;DHT22;2811;51.900;10.734;2023-07-08T14:12:43;32.60;51.10
5578;DHT22;2811;51.900;10.734;2023-07-08T14:15:10;32.80;51.20
5578;DHT22;2811;51.900;10.734;2023-07-08T14:17:37;32.80;53.00
5578;DHT22;2811;51.900;10.734;2023-07-08T14:20:09;33.00;54.60
5578;DHT22;2811;51.900;10.734;2023-07-08T14:22:36;32.80;53.40
5578;DHT22;2811;51.900;10.734;2023-07-08T14:25:08;32.90;52.50
5578;DHT22;2811;51.900;10.734;2023-07-08T14:27:35;33.00;54.10
5578;DHT22;2811;51.900;10.734;2023-07-08T14:30:02;33.00;53.40
5578;DHT22;2811;51.900;10.734;2023-07-08T14:32:30;32.80;52.70
5578;DHT22;2811;51.900;10.734;2023-07-08T14:35:04;32.70;55.00
5578;DHT22;2811;51.900;10.734;2023-07-08T14:37:36;32.70;53.70
5578;DHT22;2811;51.900;10.734;2023-07-08T14:40:16;32.50;52.50
5578;DHT22;2811;51.900;10.734;2023-07-08T14:42:44;32.70;54.30
5578;DHT22;2811;51.900;10.734;2023-07-08T14:45:11;32.70;52.40
5578;DHT22;2811;51.900;10.734;2023-07-08T14:47:38;32.80;53.70
5578;DHT22;2811;51.900;10.734;2023-07-08T14:50:12;32.70;52.80
5578;DHT22;2811;51.900;10.734;2023-07-08T14:52:39;33.00;53.20
5578;DHT22;2811;51.900;10.734;2023-07-08T14:55:08;32.70;53.90
5578;DHT22;2811;51.900;10.734;2023-07-08T14:57:41;32.70;52.20
5578;DHT22;2811;51.900;10.734;2023-07-08T15:00:11;32.70;53.30
5578;DHT22;2811;51.900;10.734;2023-07-08T15:02:40;32.60;52.70
5578;DHT22;2811;51.900;10.734;2023-07-08T15:05:13;32.50;53.90
5578;DHT22;2811;51.900;10.734;2023-07-08T15:07:40;32.50;54.20
5578;DHT22;2811;51.900;10.734;2023-07-08T15:10:09;32.30;54.10
5578;DHT22;2811;51.900;10.734;2023-07-08T15:12:36;32.40;54.70
5578;DHT22;2811;51.900;10.734;2023-07-08T15:15:03;32.40;53.60
5578;DHT22;2811;51.900;10.734;2023-07-08T15:17:30;32.50;53.90
5578;DHT22;2811;51.900;10.734;2023-07-08T15:19:57;32.50;53.50
5578;DHT22;2811;51.900;10.734;2023-07-08T15:22:24;32.40;53.60
5578;DHT22;2811;51.900;10.734;2023-07-08T15:24:50;32.50;54.00
5578;DHT22;2811;51.900;10.734;2023-07-08T15:27:21;32.60;53.80
5578;DHT22;2811;51.900;10.734;2023-07-08T15:29:49;32.60;52.80
5578;DHT22;2811;51.900;10.734;2023-07-08T15:32:16;32.50;53.20
5578;DHT22;2811;51.900;10.734;2023-07-08T15:34:46;32.60;52.20
5578;DHT22;2811;51.900;10.734;2023-07-08T15:37:12;33.00;52.70
5578;DHT22;2811;51.900;10.734;2023-07-08T15:39:39;33.60;52.70
5578;DHT22;2811;51.900;10.734;2023-07-08T15:42:10;34.00;51.70
5578;DHT22;2811;51.900;10.734;2023-07-08T15:44:39;34.80;50.60
5578;DHT22;2811;51.900;10.734;2023-07-08T15:47:10;35.00;50.00
5578;DHT22;2811;51.900;10.734;2023-07-08T15:49:37;35.30;49.80
5578;DHT22;2811;51.900;10.734;2023-07-08T15:54:36;36.50;48.20
5578;DHT22;2811;51.900;10.734;2023-07-08T15:57:03;36.60;46.50
5578;DHT22;2811;51.900;10.734;2023-07-08T15:59:31;36.70;47.50
5578;DHT22;2811;51.900;10.734;2023-07-08T16:02:04;37.30;46.20
5578;DHT22;2811;51.900;10.734;2023-07-08T16:04:37;37.10;46.80